sensor_id;sensor_type;location;lat;lon;timestamp;temperature;humidity
35497;DHT22;21609;49.298;6.844;2022-09-09T12:32:34;23.30;55.80
35497;DHT22;21609;49.298;6.844;2022-09-09T12:35:09;23.20;56.20
35497;DHT22;21609;49.298;6.844;2022-09-09T12:37:42;23.10;56.50
35497;DHT22;21609;49.298;6.844;2022-09-09T12:40:22;23.00;56.60
35497;DHT22;21609;49.298;6.844;2022-09-09T12:42:49;23.00;56.70
35497;DHT22;21609;49.298;6.844;2022-09-09T12:45:27;23.00;57.00
35497;DHT22;21609;49.298;6.844;2022-09-09T12:47:57;23.00;57.30
35497;DHT22;21609;49.298;6.844;2022-09-09T12:50:32;23.00;56.80
35497;DHT22;21609;49.298;6.844;2022-09-09T12:53:00;23.00;56.80
35497;DHT22;21609;49.298;6.844;2022-09-09T12:55:32;23.00;56.80
35497;DHT22;21609;49.298;6.844;2022-09-09T12:58:02;23.00;56.80
35497;DHT22;21609;49.298;6.844;2022-09-09T13:00:31;23.00;56.80
35497;DHT22;21609;49.298;6.844;2022-09-09T13:02:59;23.00;56.80
35497;DHT22;21609;49.298;6.844;2022-09-09T13:05:37;23.00;56.90
35497;DHT22;21609;49.298;6.844;2022-09-09T13:08:05;23.00;56.90
35497;DHT22;21609;49.298;6.844;2022-09-09T13:10:35;23.00;56.90
35497;DHT22;21609;49.298;6.844;2022-09-09T13:13:04;22.90;56.90
35497;DHT22;21609;49.298;6.844;2022-09-09T13:15:30;23.00;56.90
35497;DHT22;21609;49.298;6.844;2022-09-09T13:17:58;23.00;56.80
35497;DHT22;21609;49.298;6.844;2022-09-09T13:20:26;23.10;56.80
35497;DHT22;21609;49.298;6.844;2022-09-09T13:22:53;23.20;57.20
35497;DHT22;21609;49.298;6.844;2022-09-09T13:25:25;23.30;57.10
35497;DHT22;21609;49.298;6.844;2022-09-09T13:27:54;23.30;57.10
35497;DHT22;21609;49.298;6.844;2022-09-09T13:30:31;23.30;57.10
35497;DHT22;21609;49.298;6.844;2022-09-09T13:35:31;23.40;57.10
35497;DHT22;21609;49.298;6.844;2022-09-09T13:37:59;23.40;57.30
35497;DHT22;21609;49.298;6.844;2022-09-09T13:40:25;23.40;57.30
35497;DHT22;21609;49.298;6.844;2022-09-09T13:42:57;23.40;57.30
35497;DHT22;21609;49.298;6.844;2022-09-09T13:45:25;23.50;58.00
35497;DHT22;21609;49.298;6.844;2022-09-09T13:47:53;23.40;57.30
35497;DHT22;21609;49.298;6.844;2022-09-09T13:52:47;23.40;57.40
35497;DHT22;21609;49.298;6.844;2022-09-09T13:55:13;23.50;57.40
35497;DHT22;21609;49.298;6.844;2022-09-09T13:57:38;23.50;57.30
35497;DHT22;21609;49.298;6.844;2022-09-09T14:00:06;23.50;57.30
35497;DHT22;21609;49.298;6.844;2022-09-09T14:02:32;23.50;57.30
35497;DHT22;21609;49.298;6.844;2022-09-09T14:04:59;23.50;57.30
35497;DHT22;21609;49.298;6.844;2022-09-09T14:07:24;23.60;57.20
35497;DHT22;21609;49.298;6.844;2022-09-09T14:09:50;23.50;58.00
35497;DHT22;21609;49.298;6.844;2022-09-09T14:12:17;23.50;57.60
35497;DHT22;21609;49.298;6.844;2022-09-09T14:14:43;23.60;57.50
35497;DHT22;21609;49.298;6.844;2022-09-09T14:17:09;23.70;57.30
35497;DHT22;21609;49.298;6.844;2022-09-09T14:19:35;23.60;57.30
35497;DHT22;21609;49.298;6.844;2022-09-09T14:22:02;23.60;57.20
35497;DHT22;21609;49.298;6.844;2022-09-09T14:24:27;23.80;57.30
35497;DHT22;21609;49.298;6.844;2022-09-09T14:26:53;23.90;57.10
35497;DHT22;21609;49.298;6.844;2022-09-09T14:29:19;23.90;57.10
35497;DHT22;21609;49.298;6.844;2022-09-09T14:31:45;23.90;56.80
35497;DHT22;21609;49.298;6.844;2022-09-09T14:34:10;23.90;56.80
35497;DHT22;21609;49.298;6.844;2022-09-09T14:36:37;23.80;57.10
35497;DHT22;21609;49.298;6.844;2022-09-09T14:39:03;23.80;56.90
35497;DHT22;21609;49.298;6.844;2022-09-09T14:41:29;23.80;56.90
35497;DHT22;21609;49.298;6.844;2022-09-09T14:43:55;23.80;56.90
35497;DHT22;21609;49.298;6.844;2022-09-09T14:46:21;23.80;56.90
35497;DHT22;21609;49.298;6.844;2022-09-09T14:48:47;23.80;56.60
35497;DHT22;21609;49.298;6.844;2022-09-09T14:51:16;23.90;56.70
35497;DHT22;21609;49.298;6.844;2022-09-09T14:53:43;23.90;56.50
35497;DHT22;21609;49.298;6.844;2022-09-09T14:56:14;23.80;56.50
35497;DHT22;21609;49.298;6.844;2022-09-09T14:58:40;23.80;56.60
35497;DHT22;21609;49.298;6.844;2022-09-09T15:01:09;23.70;56.50
35497;DHT22;21609;49.298;6.844;2022-09-09T15:03:39;23.70;56.50
35497;DHT22;21609;49.298;6.844;2022-09-09T15:06:09;23.70;56.60
35497;DHT22;21609;49.298;6.844;2022-09-09T15:08:36;23.60;56.50
35497;DHT22;21609;49.298;6.844;2022-09-09T15:11:03;23.60;56.50
35497;DHT22;21609;49.298;6.844;2022-09-09T15:13:29;23.60;56.50
35497;DHT22;21609;49.298;6.844;2022-09-09T15:15:55;23.60;56.50
35497;DHT22;21609;49.298;6.844;2022-09-09T15:18:21;23.60;56.50
35497;DHT22;21609;49.298;6.844;2022-09-09T15:20:47;23.60;56.50
35497;DHT22;21609;49.298;6.844;2022-09-09T15:23:13;23.60;56.50
35497;DHT22;21609;49.298;6.844;2022-09-09T15:25:49;23.60;56.50
35497;DHT22;21609;49.298;6.844;2022-09-09T15:28:15;23.60;56.50
35497;DHT22;21609;49.298;6.844;2022-09-09T15:30:41;23.60;56.50
35497;DHT22;21609;49.298;6.844;2022-09-09T15:33:10;23.50;56.50
35497;DHT22;21609;49.298;6.844;2022-09-09T15:35:35;23.50;56.60
35497;DHT22;21609;49.298;6.844;2022-09-09T15:38:02;23.50;56.60
35497;DHT22;21609;49.298;6.844;2022-09-09T15:40:30;23.50;56.50
35497;DHT22;21609;49.298;6.844;2022-09-09T15:42:57;23.50;56.50
35497;DHT22;21609;49.298;6.844;2022-09-09T15:45:23;23.50;56.50
35497;DHT22;21609;49.298;6.844;2022-09-09T15:47:49;23.50;56.50
35497;DHT22;21609;49.298;6.844;2022-09-09T15:50:15;23.50;56.50
35497;DHT22;21609;49.298;6.844;2022-09-09T15:52:41;23.50;56.50
35497;DHT22;21609;49.298;6.844;2022-09-09T15:55:07;23.50;56.50
35497;DHT22;21609;49.298;6.844;2022-09-09T15:57:33;23.50;56.50
35497;DHT22;21609;49.298;6.844;2022-09-09T16:00:01;23.50;56.50
35497;DHT22;21609;49.298;6.844;2022-09-09T16:02:26;23.40;56.70
35497;DHT22;21609;49.298;6.844;2022-09-09T16:04:52;23.40;56.70
35497;DHT22;21609;49.298;6.844;2022-09-09T16:07:18;23.40;56.70
35497;DHT22;21609;49.298;6.844;2022-09-09T16:09:43;23.40;56.70
35497;DHT22;21609;49.298;6.844;2022-09-09T16:12:09;23.30;56.70
35497;DHT22;21609;49.298;6.844;2022-09-09T16:14:37;23.30;56.80
35497;DHT22;21609;49.298;6.844;2022-09-09T16:17:04;23.30;56.80
35497;DHT22;21609;49.298;6.844;2022-09-09T16:19:31;23.30;56.70
35497;DHT22;21609;49.298;6.844;2022-09-09T16:21:57;23.30;56.70
35497;DHT22;21609;49.298;6.844;2022-09-09T16:24:22;23.30;56.70
35497;DHT22;21609;49.298;6.844;2022-09-09T16:26:51;23.30;56.70
35497;DHT22;21609;49.298;6.844;2022-09-09T16:29:18;23.30;56.60
35497;DHT22;21609;49.298;6.844;2022-09-09T16:31:45;23.30;56.60
35497;DHT22;21609;49.298;6.844;2022-09-09T16:34:12;23.30;56.50
35497;DHT22;21609;49.298;6.844;2022-09-09T16:36:39;23.30;56.60
35497;DHT22;21609;49.298;6.844;2022-09-09T16:39:11;23.40;56.60
35497;DHT22;21609;49.298;6.844;2022-09-09T16:41:38;23.30;57.10
35497;DHT22;21609;49.298;6.844;2022-09-09T16:44:06;23.30;56.50
35497;DHT22;21609;49.298;6.844;2022-09-09T16:46:35;23.30;56.50
35497;DHT22;21609;49.298;6.844;2022-09-09T16:49:02;23.30;56.60
35497;DHT22;21609;49.298;6.844;2022-09-09T16:51:33;23.30;56.60
35497;DHT22;21609;49.298;6.844;2022-09-09T16:54:00;23.30;56.60
35497;DHT22;21609;49.298;6.844;2022-09-09T16:56:28;23.30;56.60
35497;DHT22;21609;49.298;6.844;2022-09-09T16:59:00;23.20;56.60
35497;DHT22;21609;49.298;6.844;2022-09-09T17:01:30;23.30;56.70
35497;DHT22;21609;49.298;6.844;2022-09-09T17:03:58;23.30;56.70
35497;DHT22;21609;49.298;6.844;2022-09-09T17:06:26;23.30;56.70
35497;DHT22;21609;49.298;6.844;2022-09-09T17:08:56;23.20;56.60
35497;DHT22;21609;49.298;6.844;2022-09-09T17:11:22;23.20;56.60
35497;DHT22;21609;49.298;6.844;2022-09-09T17:13:49;23.20;56.70
35497;DHT22;21609;49.298;6.844;2022-09-09T17:16:16;23.30;56.70
35497;DHT22;21609;49.298;6.844;2022-09-09T17:18:43;23.30;56.80
35497;DHT22;21609;49.298;6.844;2022-09-09T17:21:12;23.20;56.70
35497;DHT22;21609;49.298;6.844;2022-09-09T17:23:40;23.20;56.80
35497;DHT22;21609;49.298;6.844;2022-09-09T17:26:09;23.20;56.80
35497;DHT22;21609;49.298;6.844;2022-09-09T17:28:39;23.20;56.80
35497;DHT22;21609;49.298;6.844;2022-09-09T17:31:06;23.20;56.80
35497;DHT22;21609;49.298;6.844;2022-09-09T17:33:36;23.20;56.80
35497;DHT22;21609;49.298;6.844;2022-09-09T17:36:08;23.20;56.80
35497;DHT22;21609;49.298;6.844;2022-09-09T17:38:34;23.20;56.70
35497;DHT22;21609;49.298;6.844;2022-09-09T17:43:30;23.20;56.60
35497;DHT22;21609;49.298;6.844;2022-09-09T17:45:55;23.20;56.70
35497;DHT22;21609;49.298;6.844;2022-09-09T17:48:21;23.20;56.70
35497;DHT22;21609;49.298;6.844;2022-09-09T17:50:46;23.20;56.80
35497;DHT22;21609;49.298;6.844;2022-09-09T17:53:12;23.10;56.70
35497;DHT22;21609;49.298;6.844;2022-09-09T17:55:37;23.20;56.80
35497;DHT22;21609;49.298;6.844;2022-09-09T17:58:03;23.10;56.80
35497;DHT22;21609;49.298;6.844;2022-09-09T18:00:29;23.10;56.80
35497;DHT22;21609;49.298;6.844;2022-09-09T18:02:55;23.10;56.80
35497;DHT22;21609;49.298;6.844;2022-09-09T18:05:21;23.20;56.80
35497;DHT22;21609;49.298;6.844;2022-09-09T18:07:46;23.10;56.80
35497;DHT22;21609;49.298;6.844;2022-09-09T18:10:13;23.10;56.90
35497;DHT22;21609;49.298;6.844;2022-09-09T18:12:39;23.10;56.80
35497;DHT22;21609;49.298;6.844;2022-09-09T18:15:05;23.10;56.80
35497;DHT22;21609;49.298;6.844;2022-09-09T18:17:30;23.10;57.40
35497;DHT22;21609;49.298;6.844;2022-09-09T18:19:56;23.10;57.00
35497;DHT22;21609;49.298;6.844;2022-09-09T18:22:22;23.10;56.90
35497;DHT22;21609;49.298;6.844;2022-09-09T18:24:47;23.10;56.90
35497;DHT22;21609;49.298;6.844;2022-09-09T18:27:14;23.10;56.90
35497;DHT22;21609;49.298;6.844;2022-09-09T18:29:40;23.10;57.00
35497;DHT22;21609;49.298;6.844;2022-09-09T18:32:06;23.10;57.00
35497;DHT22;21609;49.298;6.844;2022-09-09T18:34:31;23.00;57.50
35497;DHT22;21609;49.298;6.844;2022-09-09T18:36:57;23.10;56.90
35497;DHT22;21609;49.298;6.844;2022-09-09T18:39:26;23.00;56.90
35497;DHT22;21609;49.298;6.844;2022-09-09T18:41:57;23.10;56.90
35497;DHT22;21609;49.298;6.844;2022-09-09T18:44:26;23.00;56.90
35497;DHT22;21609;49.298;6.844;2022-09-09T18:46:52;23.00;56.80
35497;DHT22;21609;49.298;6.844;2022-09-09T18:49:20;23.00;56.80
35497;DHT22;21609;49.298;6.844;2022-09-09T18:51:46;23.00;56.70
35497;DHT22;21609;49.298;6.844;2022-09-09T18:54:15;23.00;56.80
35497;DHT22;21609;49.298;6.844;2022-09-09T18:56:42;23.00;56.90
35497;DHT22;21609;49.298;6.844;2022-09-09T18:59:12;23.00;56.80
35497;DHT22;21609;49.298;6.844;2022-09-09T19:01:38;23.00;56.80
35497;DHT22;21609;49.298;6.844;2022-09-09T19:04:05;23.10;56.80
35497;DHT22;21609;49.298;6.844;2022-09-09T19:06:34;23.10;56.70
35497;DHT22;21609;49.298;6.844;2022-09-09T19:09:00;23.10;56.70
35497;DHT22;21609;49.298;6.844;2022-09-09T19:11:27;23.10;56.60
35497;DHT22;21609;49.298;6.844;2022-09-09T19:14:00;23.10;56.60
35497;DHT22;21609;49.298;6.844;2022-09-09T19:16:28;23.00;56.60
35497;DHT22;21609;49.298;6.844;2022-09-09T19:18:56;23.00;56.50
35497;DHT22;21609;49.298;6.844;2022-09-09T19:21:28;23.00;56.50
35497;DHT22;21609;49.298;6.844;2022-09-09T19:24:02;23.00;56.50
35497;DHT22;21609;49.298;6.844;2022-09-09T19:26:33;23.00;56.50
35497;DHT22;21609;49.298;6.844;2022-09-09T19:28:59;23.10;56.50
35497;DHT22;21609;49.298;6.844;2022-09-09T19:31:26;23.10;56.50
35497;DHT22;21609;49.298;6.844;2022-09-09T19:33:55;23.00;56.40
35497;DHT22;21609;49.298;6.844;2022-09-09T19:36:23;23.00;56.40
35497;DHT22;21609;49.298;6.844;2022-09-09T19:38:49;23.00;56.40
35497;DHT22;21609;49.298;6.844;2022-09-09T19:41:17;23.10;56.40
35497;DHT22;21609;49.298;6.844;2022-09-09T19:43:43;23.00;56.40
35497;DHT22;21609;49.298;6.844;2022-09-09T19:46:11;23.00;56.40
35497;DHT22;21609;49.298;6.844;2022-09-09T19:48:39;23.00;56.30
35497;DHT22;21609;49.298;6.844;2022-09-09T19:51:19;23.00;56.30
35497;DHT22;21609;49.298;6.844;2022-09-09T19:53:50;23.00;56.30
35497;DHT22;21609;49.298;6.844;2022-09-09T19:56:18;23.00;56.40
35497;DHT22;21609;49.298;6.844;2022-09-09T19:58:45;23.00;56.30
35497;DHT22;21609;49.298;6.844;2022-09-09T20:01:14;23.00;56.30
35497;DHT22;21609;49.298;6.844;2022-09-09T20:03:41;23.00;56.40
35497;DHT22;21609;49.298;6.844;2022-09-09T20:06:10;23.00;56.40
35497;DHT22;21609;49.298;6.844;2022-09-09T20:08:37;23.00;56.30
35497;DHT22;21609;49.298;6.844;2022-09-09T20:11:04;23.00;56.40
35497;DHT22;21609;49.298;6.844;2022-09-09T20:13:31;23.00;56.40
35497;DHT22;21609;49.298;6.844;2022-09-09T20:16:01;23.00;56.50
35497;DHT22;21609;49.298;6.844;2022-09-09T20:18:29;23.00;56.30
35497;DHT22;21609;49.298;6.844;2022-09-09T20:21:18;23.00;56.30
35497;DHT22;21609;49.298;6.844;2022-09-09T20:23:48;23.00;56.40
35497;DHT22;21609;49.298;6.844;2022-09-09T20:26:16;23.00;56.50
35497;DHT22;21609;49.298;6.844;2022-09-09T20:28:43;23.00;56.40
35497;DHT22;21609;49.298;6.844;2022-09-09T20:31:11;23.00;56.50
35497;DHT22;21609;49.298;6.844;2022-09-09T20:33:39;23.00;56.40
35497;DHT22;21609;49.298;6.844;2022-09-09T20:36:17;23.00;56.50
35497;DHT22;21609;49.298;6.844;2022-09-09T20:38:44;23.00;56.50
35497;DHT22;21609;49.298;6.844;2022-09-09T20:41:11;23.00;56.50
35497;DHT22;21609;49.298;6.844;2022-09-09T20:43:49;23.00;56.70
35497;DHT22;21609;49.298;6.844;2022-09-09T20:46:17;23.00;56.70
35497;DHT22;21609;49.298;6.844;2022-09-09T20:48:44;23.00;56.60
35497;DHT22;21609;49.298;6.844;2022-09-09T20:51:09;22.90;56.60
35497;DHT22;21609;49.298;6.844;2022-09-09T20:53:36;23.00;56.70
35497;DHT22;21609;49.298;6.844;2022-09-09T20:56:03;22.90;56.70
35497;DHT22;21609;49.298;6.844;2022-09-09T20:58:32;22.90;56.70
35497;DHT22;21609;49.298;6.844;2022-09-09T21:00:58;22.90;56.70
35497;DHT22;21609;49.298;6.844;2022-09-09T21:03:35;22.90;56.70
35497;DHT22;21609;49.298;6.844;2022-09-09T21:06:05;22.90;56.70
35497;DHT22;21609;49.298;6.844;2022-09-09T21:08:31;22.90;56.70
35497;DHT22;21609;49.298;6.844;2022-09-09T21:10:57;22.90;56.70
35497;DHT22;21609;49.298;6.844;2022-09-09T21:13:23;22.90;56.80
35497;DHT22;21609;49.298;6.844;2022-09-09T21:15:50;22.90;56.80
35497;DHT22;21609;49.298;6.844;2022-09-09T21:18:17;22.90;56.80
35497;DHT22;21609;49.298;6.844;2022-09-09T21:20:43;22.90;56.80
35497;DHT22;21609;49.298;6.844;2022-09-09T21:23:10;22.90;56.70
35497;DHT22;21609;49.298;6.844;2022-09-09T21:25:36;22.90;56.50
35497;DHT22;21609;49.298;6.844;2022-09-09T21:28:03;22.90;56.70
35497;DHT22;21609;49.298;6.844;2022-09-09T21:30:30;22.90;56.70
35497;DHT22;21609;49.298;6.844;2022-09-09T21:32:56;22.90;56.70
35497;DHT22;21609;49.298;6.844;2022-09-09T21:35:22;22.90;56.80
35497;DHT22;21609;49.298;6.844;2022-09-09T21:37:48;22.90;56.80
35497;DHT22;21609;49.298;6.844;2022-09-09T21:40:14;22.80;56.80
35497;DHT22;21609;49.298;6.844;2022-09-09T21:42:40;22.80;56.80
35497;DHT22;21609;49.298;6.844;2022-09-09T21:45:06;22.80;56.90
35497;DHT22;21609;49.298;6.844;2022-09-09T21:47:32;22.80;57.40
35497;DHT22;21609;49.298;6.844;2022-09-09T21:49:57;22.80;56.80
35497;DHT22;21609;49.298;6.844;2022-09-09T21:52:25;22.80;56.90
35497;DHT22;21609;49.298;6.844;2022-09-09T21:54:50;22.80;56.90
35497;DHT22;21609;49.298;6.844;2022-09-09T21:57:16;22.80;56.90
35497;DHT22;21609;49.298;6.844;2022-09-09T21:59:41;22.80;56.90
35497;DHT22;21609;49.298;6.844;2022-09-09T22:02:07;22.80;56.90
35497;DHT22;21609;49.298;6.844;2022-09-09T22:04:35;22.80;56.90
35497;DHT22;21609;49.298;6.844;2022-09-09T22:07:01;22.80;56.90
35497;DHT22;21609;49.298;6.844;2022-09-09T22:09:28;22.80;56.90
35497;DHT22;21609;49.298;6.844;2022-09-09T22:11:53;22.80;56.90
35497;DHT22;21609;49.298;6.844;2022-09-09T22:14:19;22.80;56.90
35497;DHT22;21609;49.298;6.844;2022-09-09T22:16:45;22.80;56.90
35497;DHT22;21609;49.298;6.844;2022-09-09T22:19:10;22.80;56.90
35497;DHT22;21609;49.298;6.844;2022-09-09T22:21:36;22.80;56.90
35497;DHT22;21609;49.298;6.844;2022-09-09T22:24:03;22.70;56.90
35497;DHT22;21609;49.298;6.844;2022-09-09T22:26:31;22.80;56.90
35497;DHT22;21609;49.298;6.844;2022-09-09T22:28:58;22.70;56.90
35497;DHT22;21609;49.298;6.844;2022-09-09T22:31:25;22.70;56.90
35497;DHT22;21609;49.298;6.844;2022-09-09T22:33:51;22.70;56.80
35497;DHT22;21609;49.298;6.844;2022-09-09T22:36:17;22.70;56.90
35497;DHT22;21609;49.298;6.844;2022-09-09T22:38:45;22.70;56.80
35497;DHT22;21609;49.298;6.844;2022-09-09T22:41:10;22.70;56.80
35497;DHT22;21609;49.298;6.844;2022-09-09T22:43:36;22.70;56.90
35497;DHT22;21609;49.298;6.844;2022-09-09T22:46:02;22.70;56.90
35497;DHT22;21609;49.298;6.844;2022-09-09T22:48:35;22.70;56.80
35497;DHT22;21609;49.298;6.844;2022-09-09T22:53:28;22.70;56.80
35497;DHT22;21609;49.298;6.844;2022-09-09T22:55:58;22.70;56.80
35497;DHT22;21609;49.298;6.844;2022-09-09T22:58:26;22.70;56.80
35497;DHT22;21609;49.298;6.844;2022-09-09T23:00:51;22.70;56.80
35497;DHT22;21609;49.298;6.844;2022-09-09T23:03:17;22.70;56.80
35497;DHT22;21609;49.298;6.844;2022-09-09T23:05:56;22.70;56.80
35497;DHT22;21609;49.298;6.844;2022-09-09T23:08:23;22.70;56.80
35497;DHT22;21609;49.298;6.844;2022-09-09T23:10:49;22.70;56.80
35497;DHT22;21609;49.298;6.844;2022-09-09T23:13:14;22.70;56.80
35497;DHT22;21609;49.298;6.844;2022-09-09T23:15:40;22.70;56.80
35497;DHT22;21609;49.298;6.844;2022-09-09T23:18:07;22.70;56.80
35497;DHT22;21609;49.298;6.844;2022-09-09T23:20:32;22.70;56.70
35497;DHT22;21609;49.298;6.844;2022-09-09T23:22:59;22.70;56.80
35497;DHT22;21609;49.298;6.844;2022-09-09T23:25:25;22.60;56.80
35497;DHT22;21609;49.298;6.844;2022-09-09T23:27:52;22.70;56.80
35497;DHT22;21609;49.298;6.844;2022-09-09T23:30:18;22.60;56.80
35497;DHT22;21609;49.298;6.844;2022-09-09T23:32:48;22.70;56.80
35497;DHT22;21609;49.298;6.844;2022-09-09T23:35:13;22.60;56.80
35497;DHT22;21609;49.298;6.844;2022-09-09T23:37:39;22.60;56.80
35497;DHT22;21609;49.298;6.844;2022-09-09T23:40:05;22.60;56.70
35497;DHT22;21609;49.298;6.844;2022-09-09T23:42:32;22.60;57.30
35497;DHT22;21609;49.298;6.844;2022-09-09T23:44:58;22.60;56.70
35497;DHT22;21609;49.298;6.844;2022-09-09T23:47:23;22.60;56.70
35497;DHT22;21609;49.298;6.844;2022-09-09T23:49:49;22.60;56.80
35497;DHT22;21609;49.298;6.844;2022-09-09T23:52:16;22.60;56.70
35497;DHT22;21609;49.298;6.844;2022-09-09T23:54:42;22.60;56.70
35497;DHT22;21609;49.298;6.844;2022-09-09T23:57:08;22.60;56.70
35497;DHT22;21609;49.298;6.844;2022-09-09T23:59:34;22.60;56.80
